Arlington, Iowa
Current Conditions -  °F | °C
As of 7:35 AM on Thursday 23 Oct 2014 (Local Time) from KOLZ Reporting Station
Overcast Overcast  
Wind Chill: 43°   Ceiling: 7500
Heat Index: 48°   Visibility: 9mi
Dew Point: 45°   Wind: 13mph
Humidity: 87%   Direction: 160°SSE
Pressure: 30.06"   Gusts: NA
Location:  42.75°N, 91.67°W
Report Text: KOLZ 231235Z AUTO 16011KT 9SM SCT050 BKN075 OVC085 09/07 A3006 RMK AO2
Loading
Personal Weather Stations






























Interactive Weather Map New forecast layout! Learn more

10-Day Weather Forecast

Advertisements
Track Severe Weather on mobile